Historique des mesures à Cassis (13260), France
Quotidien Résumé Mars 30, 2018 Unités:  Métrique    US   Métrique/US
« Précédent (Jour)
Suivant (Jour) »
Quotidien Hebdomadaire Mensuel Annuel Période au choix
  Maximum: Minimum: Moyenne:
Température: TemperatureC °C 10.6 °C 13 °C
Point de rosée: DewpointC °C 4.6 °C 7.9 °C
Humidité: Humidity % 61 % 68 %
Vitesse du vent: 0 km/h 0 km/h 4.5 km/h
Rafales: 0 km/h - -
Vent:- - South
Pression: PressurehPa hPa 997.2 hPa -
Précipitations: 0.0 mm    
Historical Graphs
 
 
Mesures pour : Mars 30, 2018
Heure Temperature Point de rosée Pression Vent Vitesse du vent Rafales Humidité Pluie (par heure) Conditions
TemperatureC °C DewpointC °C PressurehPa hPa Calm     Humidity % HourlyPrecipMM mm SoftwareType W/m2
00:10 12.2 °C 4.9 °C 1003.9 hPa NNW 1.8 km/h 1.8 km/h 61 % 0.0 mm open2300-1.11 W/m2
01:10 11.4 °C 4.6 °C 1003.9 hPa Calm   1.8 km/h 63 % 0.0 mm open2300-1.11 W/m2
02:10 10.9 °C 4.8 °C 1003.9 hPa Calm   2.3 km/h 66 % 0.0 mm open2300-1.11 W/m2
03:10 10.6 °C 5.6 °C 1003.3 hPa Calm   2.3 km/h 71 % 0.0 mm open2300-1.11 W/m2
04:10 10.6 °C 5.4 °C 1002.6 hPa NW 4.2 km/h 4.2 km/h 70 % 0.0 mm open2300-1.11 W/m2
05:10 11.3 °C 5.8 °C 1001.9 hPa Calm   2.3 km/h 69 % 0.0 mm open2300-1.11 W/m2
06:10 11.8 °C 6.1 °C 1001.6 hPa ESE 6.9 km/h 6.9 km/h 68 % 0.0 mm open2300-1.11 W/m2
07:10 11.5 °C 6.0 °C 1000.9 hPa ESE 4.2 km/h 4.2 km/h 69 % 0.0 mm open2300-1.11 W/m2
08:12 11.8 °C 6.9 °C 1000.9 hPa SSE 9.3 km/h 9.3 km/h 72 % 0.0 mm open2300-1.11 W/m2
09:12 12.9 °C 8.2 °C 1000.9 hPa ENE 4.2 km/h 6.4 km/h 73 % 0.0 mm open2300-1.11 W/m2
10:12 13.6 °C 9.0 °C 1000.9 hPa SE 9.8 km/h 10.3 km/h 74 % 0.0 mm open2300-1.11 W/m2
11:12 13.6 °C 9.4 °C 1000.6 hPa SE 10.9 km/h 18.7 km/h 76 % 0.0 mm open2300-1.11 W/m2
12:11 14.5 °C 9.9 °C 1000.6 hPa SE 12.2 km/h 12.2 km/h 74 % 0.0 mm open2300-1.11 W/m2
13:12 14.6 °C 9.8 °C 999.9 hPa ESE 6.4 km/h 12.2 km/h 73 % 0.0 mm open2300-1.11 W/m2
14:11 15.8 °C 10.6 °C 999.2 hPa SW 4.2 km/h 5.1 km/h 71 % 0.0 mm open2300-1.11 W/m2
15:11 16.2 °C 10.6 °C 998.5 hPa South 14.5 km/h 14.5 km/h 69 % 0.0 mm open2300-1.11 W/m2
16:12 16.5 °C 10.8 °C 998.5 hPa ESE 8.9 km/h 8.9 km/h 69 % 0.0 mm open2300-1.11 W/m2
17:12 16.9 °C 11.2 °C 997.5 hPa Calm   16.3 km/h 69 % 0.0 mm open2300-1.11 W/m2
18:12 16.3 °C 11.1 °C 997.5 hPa Calm   8 km/h 71 % 0.0 mm open2300-1.11 W/m2
19:12 15.3 °C 10.1 °C 997.5 hPa NW 4.7 km/h 6.4 km/h 71 % 0.0 mm open2300-1.11 W/m2
20:12 14.8 °C 10.2 °C 997.2 hPa SSE 5.1 km/h 7.6 km/h 74 % 0.0 mm open2300-1.11 W/m2
21:11 14.5 °C 9.9 °C 997.5 hPa SSE 3.4 km/h 6.4 km/h 74 % 0.0 mm open2300-1.11 W/m2
22:11 13.9 °C 9.3 °C 997.5 hPa Calm     74 % 0.0 mm open2300-1.11 W/m2
23:12 12.8 °C 8.3 °C 997.2 hPa Calm     74 % 0.0 mm open2300-1.11 W/m2
Observations météo à CASSIS
WU-History script by Weather Underground - 1 mb